Track Коровина Алина

Time Latitude Longitude Accuracy (66% radius in meters) Altitude (meters) Speed (km/hour) Bearing (degrees) Battery (%) GPS flag
10:20:51 60.370667 29.556154 24 71 0 17.663681030273 54 1 delete
10:20:43 60.370666 29.556154 16 60 0 17.663681030273 54 1 delete
10:20:38 60.370643 29.556219 32 67 0 17.663681030273 54 1 delete
10:20:25 60.370639 29.556235 24 53 0 17.663681030273 54 1 delete
10:20:13 60.370639 29.556235 16 44 0 17.663681030273 54 1 delete
10:20:12 60.370616 29.556240 24 40 0 17.663681030273 54 1 delete
10:20:00 60.370606 29.556243 24 30 0 17.663681030273 54 1 delete
10:19:56 60.370584 29.556212 32 25 0 17.663681030273 54 1 delete
10:19:53 60.370538 29.556138 24 19 0 17.663681030273 54 1 delete
10:19:48 60.370498 29.556077 32 8 0 66.497840881348 54 1 delete
10:19:40 60.370498 29.556077 48 0 0 66.497840881348 54 1 delete
11:19:37 60.371990 29.560007 32 60 5.1286773681641 66.497840881348 54 0 delete
11:19:25 60.371990 29.560007 32 60 5.1286773681641 66.497840881348 54 0 delete
11:19:12 60.371990 29.560007 32 60 5.1286773681641 66.497840881348 54 0 delete
11:19:00 60.371990 29.560007 32 60 5.1286773681641 66.497840881348 54 0 delete
11:18:47 60.371990 29.560007 32 60 5.1286773681641 66.497840881348 54 0 delete
11:18:35 60.371990 29.560007 32 60 5.1286773681641 66.497840881348 54 0 delete
11:18:22 60.371990 29.560007 32 60 5.1286773681641 66.497840881348 54 0 delete
11:18:10 60.371990 29.560007 32 60 5.1286773681641 66.497840881348 54 0 delete
11:17:57 60.371990 29.560007 32 60 5.1286773681641 66.497840881348 54 0 delete
11:17:45 60.371990 29.560007 32 60 5.1286773681641 66.497840881348 54 0 delete
11:17:32 60.371990 29.560007 32 60 5.1286773681641 66.497840881348 54 0 delete
11:17:20 60.371990 29.560007 32 60 5.1286773681641 66.497840881348 54 0 delete
11:17:07 60.371990 29.560007 32 60 5.1286773681641 66.497840881348 54 0 delete
11:16:54 60.371990 29.560007 32 60 5.1286773681641 66.497840881348 54 0 delete
11:16:42 60.371990 29.560007 32 60 5.1286773681641 66.497840881348 54 0 delete
11:16:29 60.371990 29.560007 32 60 5.1286773681641 66.497840881348 54 0 delete
10:16:10 60.371990 29.560007 32 60 5.1286773681641 66.497840881348 54 1 delete
10:16:09 60.371969 29.559903 32 60 5.1286773681641 66.497840881348 54 1 delete
10:16:08 60.371947 29.559800 32 60 5.1286773681641 66.497840881348 54 1 delete
10:16:07 60.371917 29.559697 32 56 5.0166578292847 66.140182495117 54 1 delete
10:16:06 60.371885 29.559588 32 53 4.8819584846497 65.386253356934 54 1 delete
10:16:05 60.371850 29.559481 32 56 4.7288317680359 63.723476409912 54 1 delete
10:16:04 60.371816 29.559375 32 56 4.5586910247803 67.286117553711 56 1 delete
10:16:03 60.371790 29.559284 32 49 4.4524855613708 67.272361755371 56 1 delete
10:16:02 60.371764 29.559192 32 34 4.3338875770569 67.244255065918 56 1 delete
10:16:01 60.371741 29.559109 32 33 4.2025456428528 67.185668945312 56 1 delete
10:16:00 60.371715 29.559026 32 37 4.0590052604675 65.586730957031 56 1 delete
10:15:59 60.371691 29.558939 24 31 3.8995161056519 68.960998535156 56 1 delete
10:15:58 60.371671 29.558844 24 35 3.724324464798 67.509490966797 56 1 delete
10:15:56 60.371634 29.558689 24 33 3.5447323322296 64.191802978516 56 1 delete
10:15:54 60.371604 29.558541 24 35 3.4093241691589 68.457305908203 56 1 delete
10:15:52 60.371580 29.558377 24 37 3.2293312549591 64.177268981934 56 1 delete
10:15:50 60.371552 29.558229 24 36 3.0817403793335 59.768405914307 56 1 delete
10:15:48 60.371524 29.558110 24 38 3.0088286399841 58.792205810547 56 1 delete
10:15:46 60.371496 29.558000 24 34 2.9362690448761 57.697067260742 56 1 delete
10:15:44 60.371469 29.557890 24 28 2.8433756828308 56.706520080566 56 1 delete
10:15:42 60.371443 29.557790 24 29 2.7524139881134 56.296443939209 56 1 delete
10:15:40 60.371419 29.557689 24 26 2.6447937488556 54.583446502686 56 1 delete
10:15:38 60.371396 29.557592 24 29 2.5372698307037 50.075843811035 56 1 delete